| Date | Time | Temp. (oF) | Dew Point (oF) | Rel. Hum. (%) | Press. (in.) | Wind Dir. | Wind Speed (mph) | Hourly Rainfall (in.) |
|
|---|---|---|---|---|---|---|---|---|---|
| 1 | 03/20 | 00:00 | 32 | 15 | 51 | 30.29 | SE | 0 | 0.00 |
| 2 | 03/19 | 23:00 | 33 | 14 | 47 | 30.29 | E | 0 | 0.00 |
| 3 | 03/19 | 22:00 | 33 | 14 | 46 | 30.29 | S | 0 | 0.00 |
| 4 | 03/19 | 21:00 | 35 | 13 | 40 | 30.28 | SSE | 0 | 0.00 |
| 5 | 03/19 | 20:00 | 39 | 12 | 34 | 30.27 | NNE | 0 | 0.00 |
| 6 | 03/19 | 19:00 | 41 | 10 | 28 | 30.25 | WSW | 0 | 0.00 |
| 7 | 03/19 | 18:00 | 43 | 10 | 26 | 30.23 | N | 4 | 0.00 |
| 8 | 03/19 | 17:00 | 44 | 13 | 29 | 30.23 | W | 7 | 0.00 |
| 9 | 03/19 | 16:00 | 43 | 13 | 30 | 30.25 | S | 2 | 0.00 |
| 10 | 03/19 | 15:00 | 41 | 13 | 32 | 30.27 | NNE | 0 | 0.00 |
| 11 | 03/19 | 14:00 | 39 | 11 | 32 | 30.30 | NNE | 8 | 0.00 |
| 12 | 03/19 | 13:00 | 38 | 12 | 35 | 30.32 | SW | 8 | 0.00 |
| 13 | 03/19 | 12:00 | 37 | 10 | 33 | 30.34 | NNE | 7 | 0.00 |
| 14 | 03/19 | 11:00 | 35 | 9 | 35 | 30.34 | NE | 13 | 0.00 |
| 15 | 03/19 | 10:00 | 34 | 10 | 38 | 30.34 | NE | 7 | 0.00 |
| 16 | 03/19 | 09:00 | 33 | 12 | 43 | 30.33 | NNE | 8 | 0.00 |
| 17 | 03/19 | 08:00 | 30 | 13 | 50 | 30.31 | N | 7 | 0.00 |
| 18 | 03/19 | 07:00 | 26 | 19 | 77 | 30.29 | N | 4 | 0.00 |
| 19 | 03/19 | 06:00 | 27 | 17 | 68 | 30.27 | S | 0 | 0.00 |
| 20 | 03/19 | 05:00 | 28 | 16 | 62 | 30.23 | W | 0 | 0.00 |
| 21 | 03/19 | 04:00 | 29 | 16 | 58 | 30.21 | S | 3 | 0.00 |
| 22 | 03/19 | 03:00 | 30 | 17 | 59 | 30.21 | SSW | 0 | 0.00 |
| 23 | 03/19 | 02:00 | 31 | 16 | 55 | 30.21 | WNW | 0 | 0.00 |
| 24 | 03/19 | 01:00 | 33 | 15 | 48 | 30.19 | NNW | 6 | 0.00 |